sensor_id;sensor_type;location;lat;lon;timestamp;pressure;altitude;pressure_sealevel;temperature;humidity
56176;BME280;63065;51.082;17.016;2023-03-14T00:00:15;98558.78;;;14.59;34.55
56176;BME280;63065;51.082;17.016;2023-03-14T00:02:40;98553.58;;;14.68;35.06
56176;BME280;63065;51.082;17.016;2023-03-14T00:05:06;98539.69;;;14.66;34.72
56176;BME280;63065;51.082;17.016;2023-03-14T00:07:31;98534.39;;;14.60;35.49
56176;BME280;63065;51.082;17.016;2023-03-14T00:09:56;98533.48;;;14.48;35.41
56176;BME280;63065;51.082;17.016;2023-03-14T00:12:22;98538.46;;;14.63;35.77
56176;BME280;63065;51.082;17.016;2023-03-14T00:14:47;98545.56;;;14.46;35.52
56176;BME280;63065;51.082;17.016;2023-03-14T00:17:13;98555.82;;;14.26;34.90
56176;BME280;63065;51.082;17.016;2023-03-14T00:19:38;98554.52;;;14.08;35.01
56176;BME280;63065;51.082;17.016;2023-03-14T00:22:04;98553.27;;;14.26;34.52
56176;BME280;63065;51.082;17.016;2023-03-14T00:24:30;98547.12;;;14.64;34.60
56176;BME280;63065;51.082;17.016;2023-03-14T00:26:55;98546.91;;;14.50;34.45
56176;BME280;63065;51.082;17.016;2023-03-14T00:29:21;98543.26;;;14.64;34.50
56176;BME280;63065;51.082;17.016;2023-03-14T00:31:46;98536.57;;;14.68;34.51
56176;BME280;63065;51.082;17.016;2023-03-14T00:34:12;98541.56;;;14.79;34.57
56176;BME280;63065;51.082;17.016;2023-03-14T00:36:38;98535.42;;;14.87;34.43
56176;BME280;63065;51.082;17.016;2023-03-14T00:39:04;98528.25;;;14.90;34.37
56176;BME280;63065;51.082;17.016;2023-03-14T00:41:29;98523.34;;;14.90;34.68
56176;BME280;63065;51.082;17.016;2023-03-14T00:43:55;98524.95;;;14.96;35.08
56176;BME280;63065;51.082;17.016;2023-03-14T00:46:20;98528.57;;;14.96;35.67
56176;BME280;63065;51.082;17.016;2023-03-14T00:48:47;98525.04;;;14.81;34.33
56176;BME280;63065;51.082;17.016;2023-03-14T00:51:12;98532.78;;;14.84;35.92
56176;BME280;63065;51.082;17.016;2023-03-14T00:53:39;98541.94;;;14.98;35.01
56176;BME280;63065;51.082;17.016;2023-03-14T00:56:04;98563.45;;;14.70;35.20
56176;BME280;63065;51.082;17.016;2023-03-14T00:58:28;98609.19;;;14.71;35.08
56176;BME280;63065;51.082;17.016;2023-03-14T01:00:54;98603.29;;;14.53;34.69
56176;BME280;63065;51.082;17.016;2023-03-14T01:03:19;98583.53;;;14.11;34.74
56176;BME280;63065;51.082;17.016;2023-03-14T01:05:45;98580.33;;;14.37;34.69
56176;BME280;63065;51.082;17.016;2023-03-14T01:08:10;98579.13;;;14.49;34.97
56176;BME280;63065;51.082;17.016;2023-03-14T01:10:38;98578.67;;;14.74;34.55
56176;BME280;63065;51.082;17.016;2023-03-14T01:13:01;98569.43;;;14.84;34.58
56176;BME280;63065;51.082;17.016;2023-03-14T01:15:26;98553.27;;;14.79;34.39
56176;BME280;63065;51.082;17.016;2023-03-14T01:17:52;98564.70;;;14.91;34.30
56176;BME280;63065;51.082;17.016;2023-03-14T01:20:18;98565.85;;;15.12;35.12
56176;BME280;63065;51.082;17.016;2023-03-14T01:22:44;98561.30;;;15.17;34.53
56176;BME280;63065;51.082;17.016;2023-03-14T01:25:13;98560.92;;;15.19;33.93
56176;BME280;63065;51.082;17.016;2023-03-14T01:27:35;98566.17;;;15.08;33.95
56176;BME280;63065;51.082;17.016;2023-03-14T01:30:00;98555.04;;;15.35;34.10
56176;BME280;63065;51.082;17.016;2023-03-14T01:32:25;98550.02;;;14.80;35.01
56176;BME280;63065;51.082;17.016;2023-03-14T01:34:51;98540.26;;;14.71;34.84
56176;BME280;63065;51.082;17.016;2023-03-14T01:37:17;98518.11;;;14.81;34.78
56176;BME280;63065;51.082;17.016;2023-03-14T01:39:43;98505.44;;;14.98;35.81
56176;BME280;63065;51.082;17.016;2023-03-14T01:42:08;98493.58;;;14.78;36.13
56176;BME280;63065;51.082;17.016;2023-03-14T01:47:00;98484.65;;;15.19;36.34
56176;BME280;63065;51.082;17.016;2023-03-14T01:49:27;98474.35;;;15.22;36.97
56176;BME280;63065;51.082;17.016;2023-03-14T01:51:54;98489.63;;;14.96;38.09
56176;BME280;63065;51.082;17.016;2023-03-14T01:54:19;98482.48;;;14.97;36.89
56176;BME280;63065;51.082;17.016;2023-03-14T01:56:43;98471.83;;;15.00;37.40
56176;BME280;63065;51.082;17.016;2023-03-14T01:59:08;98468.12;;;15.00;37.30
56176;BME280;63065;51.082;17.016;2023-03-14T02:01:33;98473.99;;;14.95;37.42
56176;BME280;63065;51.082;17.016;2023-03-14T02:04:02;98457.60;;;14.90;37.14
56176;BME280;63065;51.082;17.016;2023-03-14T02:06:26;98436.87;;;14.79;37.14
56176;BME280;63065;51.082;17.016;2023-03-14T02:08:50;98419.38;;;14.83;37.39
56176;BME280;63065;51.082;17.016;2023-03-14T02:11:16;98409.70;;;14.62;37.35
56176;BME280;63065;51.082;17.016;2023-03-14T02:13:40;98405.74;;;14.83;37.61
56176;BME280;63065;51.082;17.016;2023-03-14T02:16:06;98399.50;;;14.77;37.81
56176;BME280;63065;51.082;17.016;2023-03-14T02:18:31;98403.62;;;14.75;37.92
56176;BME280;63065;51.082;17.016;2023-03-14T02:21:01;98410.76;;;14.65;37.46
56176;BME280;63065;51.082;17.016;2023-03-14T02:23:30;98412.36;;;14.52;37.40
56176;BME280;63065;51.082;17.016;2023-03-14T02:25:53;98401.05;;;14.59;37.40
56176;BME280;63065;51.082;17.016;2023-03-14T02:28:14;98389.01;;;14.32;37.40
56176;BME280;63065;51.082;17.016;2023-03-14T02:30:40;98374.37;;;14.34;37.37
56176;BME280;63065;51.082;17.016;2023-03-14T02:33:07;98377.87;;;14.20;37.17
56176;BME280;63065;51.082;17.016;2023-03-14T02:35:35;98371.27;;;14.29;37.40
56176;BME280;63065;51.082;17.016;2023-03-14T02:38:02;98367.16;;;14.20;36.91
56176;BME280;63065;51.082;17.016;2023-03-14T02:40:22;98359.00;;;14.18;37.24
56176;BME280;63065;51.082;17.016;2023-03-14T02:42:47;98356.74;;;14.55;36.63
56176;BME280;63065;51.082;17.016;2023-03-14T02:47:42;98357.67;;;14.34;36.01
56176;BME280;63065;51.082;17.016;2023-03-14T02:50:08;98364.13;;;14.53;35.91
56176;BME280;63065;51.082;17.016;2023-03-14T02:52:29;98356.44;;;14.66;35.42
56176;BME280;63065;51.082;17.016;2023-03-14T02:54:55;98356.22;;;14.63;35.81
56176;BME280;63065;51.082;17.016;2023-03-14T02:57:20;98349.28;;;14.64;35.67
56176;BME280;63065;51.082;17.016;2023-03-14T02:59:46;98328.56;;;14.61;35.71
56176;BME280;63065;51.082;17.016;2023-03-14T03:02:12;98314.39;;;14.65;35.46
56176;BME280;63065;51.082;17.016;2023-03-14T03:04:38;98305.90;;;14.82;35.61
56176;BME280;63065;51.082;17.016;2023-03-14T03:07:03;98303.26;;;14.48;35.80
56176;BME280;63065;51.082;17.016;2023-03-14T03:09:28;98299.75;;;14.42;35.38
56176;BME280;63065;51.082;17.016;2023-03-14T03:11:54;98286.35;;;14.07;35.50
56176;BME280;63065;51.082;17.016;2023-03-14T03:14:19;98305.54;;;14.58;35.34
56176;BME280;63065;51.082;17.016;2023-03-14T03:16:44;98306.93;;;14.21;35.71
56176;BME280;63065;51.082;17.016;2023-03-14T03:19:10;98310.57;;;14.39;35.84
56176;BME280;63065;51.082;17.016;2023-03-14T03:21:35;98296.93;;;14.42;35.30
56176;BME280;63065;51.082;17.016;2023-03-14T03:24:00;98293.72;;;13.69;36.20
56176;BME280;63065;51.082;17.016;2023-03-14T03:26:26;98295.02;;;13.78;36.10
56176;BME280;63065;51.082;17.016;2023-03-14T03:28:52;98291.60;;;14.37;36.14
56176;BME280;63065;51.082;17.016;2023-03-14T03:31:17;98302.28;;;14.29;36.20
56176;BME280;63065;51.082;17.016;2023-03-14T03:33:43;98302.48;;;13.91;36.12
56176;BME280;63065;51.082;17.016;2023-03-14T03:36:09;98303.40;;;14.35;36.22
56176;BME280;63065;51.082;17.016;2023-03-14T03:38:34;98298.62;;;13.88;36.17
56176;BME280;63065;51.082;17.016;2023-03-14T03:41:02;98291.49;;;14.49;36.00
56176;BME280;63065;51.082;17.016;2023-03-14T03:43:26;98292.18;;;14.31;35.67
56176;BME280;63065;51.082;17.016;2023-03-14T03:45:51;98279.67;;;14.64;35.37
56176;BME280;63065;51.082;17.016;2023-03-14T03:48:17;98273.19;;;14.35;35.16
56176;BME280;63065;51.082;17.016;2023-03-14T03:50:45;98273.72;;;14.45;35.11
56176;BME280;63065;51.082;17.016;2023-03-14T03:53:08;98258.87;;;14.31;35.41
56176;BME280;63065;51.082;17.016;2023-03-14T03:55:34;98274.32;;;14.51;35.64
56176;BME280;63065;51.082;17.016;2023-03-14T03:58:00;98266.97;;;14.62;35.07
56176;BME280;63065;51.082;17.016;2023-03-14T04:00:25;98265.79;;;14.16;35.09
56176;BME280;63065;51.082;17.016;2023-03-14T04:02:51;98256.96;;;14.48;35.19
56176;BME280;63065;51.082;17.016;2023-03-14T04:05:17;98244.73;;;14.50;35.10
56176;BME280;63065;51.082;17.016;2023-03-14T04:07:42;98249.88;;;14.57;34.99
56176;BME280;63065;51.082;17.016;2023-03-14T04:10:09;98258.97;;;14.41;35.72
56176;BME280;63065;51.082;17.016;2023-03-14T04:12:34;98261.72;;;13.82;35.96
56176;BME280;63065;51.082;17.016;2023-03-14T04:14:59;98240.54;;;13.89;36.20
56176;BME280;63065;51.082;17.016;2023-03-14T04:17:25;98240.82;;;14.14;35.85
56176;BME280;63065;51.082;17.016;2023-03-14T04:19:50;98235.10;;;14.00;36.13
56176;BME280;63065;51.082;17.016;2023-03-14T04:22:16;98214.51;;;13.84;36.27
56176;BME280;63065;51.082;17.016;2023-03-14T04:24:41;98216.31;;;14.14;35.81
56176;BME280;63065;51.082;17.016;2023-03-14T04:27:07;98199.06;;;14.27;35.97
56176;BME280;63065;51.082;17.016;2023-03-14T04:29:32;98189.78;;;14.59;35.73
56176;BME280;63065;51.082;17.016;2023-03-14T04:31:58;98181.93;;;14.08;35.94
56176;BME280;63065;51.082;17.016;2023-03-14T04:34:23;98175.49;;;13.89;36.57
56176;BME280;63065;51.082;17.016;2023-03-14T04:36:49;98178.18;;;14.42;36.15
56176;BME280;63065;51.082;17.016;2023-03-14T04:39:14;98193.74;;;14.36;35.32
56176;BME280;63065;51.082;17.016;2023-03-14T04:41:40;98202.02;;;14.34;36.19
56176;BME280;63065;51.082;17.016;2023-03-14T04:44:05;98207.06;;;14.31;35.17
56176;BME280;63065;51.082;17.016;2023-03-14T04:46:30;98192.44;;;14.44;35.58
56176;BME280;63065;51.082;17.016;2023-03-14T04:48:56;98202.11;;;14.36;36.10
56176;BME280;63065;51.082;17.016;2023-03-14T04:51:22;98201.77;;;14.58;35.01
56176;BME280;63065;51.082;17.016;2023-03-14T04:53:48;98201.74;;;14.91;34.90
56176;BME280;63065;51.082;17.016;2023-03-14T04:56:13;98205.68;;;14.97;34.94
56176;BME280;63065;51.082;17.016;2023-03-14T04:58:39;98213.71;;;15.14;34.84
56176;BME280;63065;51.082;17.016;2023-03-14T05:01:06;98229.83;;;15.26;35.13
56176;BME280;63065;51.082;17.016;2023-03-14T05:03:30;98214.05;;;15.02;34.77
56176;BME280;63065;51.082;17.016;2023-03-14T05:05:55;98211.15;;;15.29;35.00
56176;BME280;63065;51.082;17.016;2023-03-14T05:08:21;98211.57;;;15.30;35.34
56176;BME280;63065;51.082;17.016;2023-03-14T05:10:52;98203.81;;;14.84;35.63
56176;BME280;63065;51.082;17.016;2023-03-14T05:13:12;98191.84;;;15.09;35.61
56176;BME280;63065;51.082;17.016;2023-03-14T05:15:38;98184.06;;;14.64;35.96
56176;BME280;63065;51.082;17.016;2023-03-14T05:18:04;98175.62;;;15.21;36.75
56176;BME280;63065;51.082;17.016;2023-03-14T05:20:30;98173.45;;;15.05;37.33
56176;BME280;63065;51.082;17.016;2023-03-14T05:22:55;98155.84;;;14.88;37.63
56176;BME280;63065;51.082;17.016;2023-03-14T05:25:20;98155.39;;;14.57;37.27
56176;BME280;63065;51.082;17.016;2023-03-14T05:27:46;98157.33;;;14.74;37.11
56176;BME280;63065;51.082;17.016;2023-03-14T05:30:12;98164.28;;;14.76;37.63
56176;BME280;63065;51.082;17.016;2023-03-14T05:32:37;98161.13;;;14.67;38.21
56176;BME280;63065;51.082;17.016;2023-03-14T05:35:02;98163.01;;;14.64;38.39
56176;BME280;63065;51.082;17.016;2023-03-14T05:37:27;98166.37;;;14.36;38.94
56176;BME280;63065;51.082;17.016;2023-03-14T05:39:53;98171.17;;;14.49;39.18
56176;BME280;63065;51.082;17.016;2023-03-14T05:42:18;98180.71;;;14.37;37.59
56176;BME280;63065;51.082;17.016;2023-03-14T05:44:44;98197.53;;;14.30;38.50
56176;BME280;63065;51.082;17.016;2023-03-14T05:47:10;98199.50;;;13.73;38.30
56176;BME280;63065;51.082;17.016;2023-03-14T05:49:35;98191.37;;;13.79;38.01
56176;BME280;63065;51.082;17.016;2023-03-14T05:52:01;98197.72;;;14.13;38.59
56176;BME280;63065;51.082;17.016;2023-03-14T05:54:26;98194.82;;;14.24;38.96
56176;BME280;63065;51.082;17.016;2023-03-14T05:56:52;98186.45;;;14.13;38.71
56176;BME280;63065;51.082;17.016;2023-03-14T05:59:17;98178.28;;;13.97;38.50
56176;BME280;63065;51.082;17.016;2023-03-14T06:01:43;98179.38;;;14.43;39.14
56176;BME280;63065;51.082;17.016;2023-03-14T06:04:08;98175.45;;;14.23;38.88
56176;BME280;63065;51.082;17.016;2023-03-14T06:06:34;98187.22;;;14.33;38.70
56176;BME280;63065;51.082;17.016;2023-03-14T06:08:59;98194.68;;;13.91;38.37
56176;BME280;63065;51.082;17.016;2023-03-14T06:11:25;98198.13;;;14.47;37.89
56176;BME280;63065;51.082;17.016;2023-03-14T06:13:51;98192.03;;;14.54;37.91
56176;BME280;63065;51.082;17.016;2023-03-14T06:16:16;98189.87;;;14.62;37.77
56176;BME280;63065;51.082;17.016;2023-03-14T06:18:41;98179.46;;;14.45;37.38
56176;BME280;63065;51.082;17.016;2023-03-14T06:21:07;98191.08;;;14.80;37.52
56176;BME280;63065;51.082;17.016;2023-03-14T06:23:32;98210.15;;;14.90;37.34
56176;BME280;63065;51.082;17.016;2023-03-14T06:25:58;98215.39;;;15.07;38.32
56176;BME280;63065;51.082;17.016;2023-03-14T06:28:23;98211.68;;;15.23;37.70
56176;BME280;63065;51.082;17.016;2023-03-14T06:30:48;98227.55;;;15.03;36.82
56176;BME280;63065;51.082;17.016;2023-03-14T06:33:14;98242.76;;;15.26;37.85
56176;BME280;63065;51.082;17.016;2023-03-14T06:35:39;98242.22;;;15.08;37.44
56176;BME280;63065;51.082;17.016;2023-03-14T06:38:04;98236.94;;;15.14;37.37
56176;BME280;63065;51.082;17.016;2023-03-14T06:40:30;98240.37;;;15.38;37.44
56176;BME280;63065;51.082;17.016;2023-03-14T06:42:55;98236.56;;;15.17;36.85
56176;BME280;63065;51.082;17.016;2023-03-14T06:45:21;98228.53;;;15.03;36.31
56176;BME280;63065;51.082;17.016;2023-03-14T06:47:47;98224.07;;;15.40;36.69
56176;BME280;63065;51.082;17.016;2023-03-14T06:50:13;98229.39;;;15.28;36.41
56176;BME280;63065;51.082;17.016;2023-03-14T06:52:38;98230.19;;;15.36;36.31
56176;BME280;63065;51.082;17.016;2023-03-14T06:55:05;98231.84;;;15.17;36.21
56176;BME280;63065;51.082;17.016;2023-03-14T06:57:29;98241.08;;;15.54;36.27
56176;BME280;63065;51.082;17.016;2023-03-14T06:59:55;98243.39;;;15.63;36.50
56176;BME280;63065;51.082;17.016;2023-03-14T07:02:22;98236.23;;;15.16;36.08
56176;BME280;63065;51.082;17.016;2023-03-14T07:04:46;98227.44;;;15.29;36.31
56176;BME280;63065;51.082;17.016;2023-03-14T07:07:12;98227.02;;;15.24;36.01
56176;BME280;63065;51.082;17.016;2023-03-14T07:09:37;98236.46;;;15.55;36.62
56176;BME280;63065;51.082;17.016;2023-03-14T07:12:03;98239.46;;;15.70;36.34
56176;BME280;63065;51.082;17.016;2023-03-14T07:14:28;98244.34;;;15.23;36.23
56176;BME280;63065;51.082;17.016;2023-03-14T07:16:54;98245.13;;;15.43;35.89
56176;BME280;63065;51.082;17.016;2023-03-14T07:19:19;98249.62;;;15.45;36.83
56176;BME280;63065;51.082;17.016;2023-03-14T07:21:44;98262.57;;;15.22;35.84
56176;BME280;63065;51.082;17.016;2023-03-14T07:24:10;98275.22;;;15.42;36.00
56176;BME280;63065;51.082;17.016;2023-03-14T07:26:36;98274.89;;;15.10;36.19
56176;BME280;63065;51.082;17.016;2023-03-14T07:29:01;98269.47;;;15.13;36.17
56176;BME280;63065;51.082;17.016;2023-03-14T07:31:26;98257.96;;;15.63;36.39
56176;BME280;63065;51.082;17.016;2023-03-14T07:33:52;98247.89;;;15.63;36.26
56176;BME280;63065;51.082;17.016;2023-03-14T07:36:17;98243.05;;;15.42;36.30
56176;BME280;63065;51.082;17.016;2023-03-14T07:38:43;98250.65;;;15.07;36.53
56176;BME280;63065;51.082;17.016;2023-03-14T07:41:09;98248.17;;;15.39;36.36
56176;BME280;63065;51.082;17.016;2023-03-14T07:43:34;98239.44;;;15.38;36.51
56176;BME280;63065;51.082;17.016;2023-03-14T07:46:00;98229.78;;;15.36;36.68
56176;BME280;63065;51.082;17.016;2023-03-14T07:48:26;98220.77;;;15.33;36.50
56176;BME280;63065;51.082;17.016;2023-03-14T07:50:52;98210.78;;;15.00;36.41
56176;BME280;63065;51.082;17.016;2023-03-14T07:53:16;98217.82;;;14.76;36.65
56176;BME280;63065;51.082;17.016;2023-03-14T07:55:42;98227.90;;;15.26;36.31
56176;BME280;63065;51.082;17.016;2023-03-14T07:58:07;98239.33;;;15.06;36.49
56176;BME280;63065;51.082;17.016;2023-03-14T08:00:33;98241.51;;;15.26;36.13
56176;BME280;63065;51.082;17.016;2023-03-14T08:02:59;98229.31;;;14.56;36.54
56176;BME280;63065;51.082;17.016;2023-03-14T08:05:24;98223.93;;;14.47;36.70
56176;BME280;63065;51.082;17.016;2023-03-14T08:07:50;98229.81;;;14.57;36.48
56176;BME280;63065;51.082;17.016;2023-03-14T08:10:16;98225.33;;;14.83;36.40
56176;BME280;63065;51.082;17.016;2023-03-14T08:12:41;98219.18;;;14.90;36.74
56176;BME280;63065;51.082;17.016;2023-03-14T08:15:07;98227.60;;;14.71;37.10
56176;BME280;63065;51.082;17.016;2023-03-14T08:17:32;98220.80;;;14.73;36.85
56176;BME280;63065;51.082;17.016;2023-03-14T08:19:56;98220.99;;;14.71;36.99
56176;BME280;63065;51.082;17.016;2023-03-14T08:22:22;98237.54;;;14.38;37.00
56176;BME280;63065;51.082;17.016;2023-03-14T08:24:47;98238.71;;;14.31;37.44
56176;BME280;63065;51.082;17.016;2023-03-14T08:27:13;98245.97;;;14.39;37.08
56176;BME280;63065;51.082;17.016;2023-03-14T08:29:39;98254.84;;;14.57;37.18
56176;BME280;63065;51.082;17.016;2023-03-14T08:32:04;98260.52;;;14.78;37.22
56176;BME280;63065;51.082;17.016;2023-03-14T08:34:29;98266.26;;;14.67;36.98
56176;BME280;63065;51.082;17.016;2023-03-14T08:36:55;98270.03;;;14.99;37.19
56176;BME280;63065;51.082;17.016;2023-03-14T08:39:20;98271.87;;;15.04;37.11
56176;BME280;63065;51.082;17.016;2023-03-14T08:41:45;98273.87;;;14.91;37.40
56176;BME280;63065;51.082;17.016;2023-03-14T08:44:11;98285.32;;;15.00;37.68
56176;BME280;63065;51.082;17.016;2023-03-14T08:46:36;98288.88;;;14.82;37.73
56176;BME280;63065;51.082;17.016;2023-03-14T08:49:01;98287.74;;;14.59;38.03
56176;BME280;63065;51.082;17.016;2023-03-14T08:51:26;98293.69;;;14.89;38.15
56176;BME280;63065;51.082;17.016;2023-03-14T08:53:52;98287.39;;;14.93;38.18
56176;BME280;63065;51.082;17.016;2023-03-14T08:56:17;98286.80;;;14.54;37.65
56176;BME280;63065;51.082;17.016;2023-03-14T08:58:43;98288.32;;;15.24;37.95
56176;BME280;63065;51.082;17.016;2023-03-14T09:01:09;98286.00;;;15.25;37.63
56176;BME280;63065;51.082;17.016;2023-03-14T09:03:34;98281.89;;;15.46;37.12
56176;BME280;63065;51.082;17.016;2023-03-14T09:06:02;98282.16;;;15.66;37.07
56176;BME280;63065;51.082;17.016;2023-03-14T09:08:25;98284.73;;;15.56;36.55
56176;BME280;63065;51.082;17.016;2023-03-14T09:10:50;98287.57;;;15.60;36.55
56176;BME280;63065;51.082;17.016;2023-03-14T09:13:16;98280.97;;;15.58;36.46
56176;BME280;63065;51.082;17.016;2023-03-14T09:15:41;98279.16;;;15.64;35.83
56176;BME280;63065;51.082;17.016;2023-03-14T09:18:06;98282.94;;;15.93;36.04
56176;BME280;63065;51.082;17.016;2023-03-14T09:20:32;98286.67;;;15.68;35.97
56176;BME280;63065;51.082;17.016;2023-03-14T09:22:57;98287.26;;;15.79;36.08
56176;BME280;63065;51.082;17.016;2023-03-14T09:25:22;98285.06;;;15.84;35.97
56176;BME280;63065;51.082;17.016;2023-03-14T09:27:48;98287.36;;;15.93;35.78
56176;BME280;63065;51.082;17.016;2023-03-14T09:30:13;98298.88;;;15.85;35.86
56176;BME280;63065;51.082;17.016;2023-03-14T09:32:39;98307.84;;;15.91;36.13
56176;BME280;63065;51.082;17.016;2023-03-14T09:35:05;98306.38;;;15.91;35.77
56176;BME280;63065;51.082;17.016;2023-03-14T09:37:30;98310.14;;;15.60;36.20
56176;BME280;63065;51.082;17.016;2023-03-14T09:39:56;98321.04;;;15.71;36.26
56176;BME280;63065;51.082;17.016;2023-03-14T09:42:23;98328.69;;;15.69;36.38
56176;BME280;63065;51.082;17.016;2023-03-14T09:44:53;98332.91;;;15.69;36.16
56176;BME280;63065;51.082;17.016;2023-03-14T09:47:13;98332.59;;;15.51;36.01
56176;BME280;63065;51.082;17.016;2023-03-14T09:49:39;98336.68;;;15.15;36.22
56176;BME280;63065;51.082;17.016;2023-03-14T09:52:10;98335.85;;;15.28;36.45
56176;BME280;63065;51.082;17.016;2023-03-14T09:54:32;98337.60;;;15.57;36.37
56176;BME280;63065;51.082;17.016;2023-03-14T09:56:54;98338.31;;;15.27;36.40
56176;BME280;63065;51.082;17.016;2023-03-14T09:59:19;98340.15;;;15.45;36.66
56176;BME280;63065;51.082;17.016;2023-03-14T10:01:45;98339.26;;;15.52;36.58
56176;BME280;63065;51.082;17.016;2023-03-14T10:04:14;98337.45;;;15.52;36.75
56176;BME280;63065;51.082;17.016;2023-03-14T10:06:36;98335.61;;;15.95;36.88
56176;BME280;63065;51.082;17.016;2023-03-14T10:09:03;98332.98;;;15.77;36.79
56176;BME280;63065;51.082;17.016;2023-03-14T10:11:27;98334.25;;;16.11;36.90
56176;BME280;63065;51.082;17.016;2023-03-14T10:16:28;98332.30;;;15.91;36.60
56176;BME280;63065;51.082;17.016;2023-03-14T10:18:45;98333.73;;;15.68;36.61
56176;BME280;63065;51.082;17.016;2023-03-14T10:21:17;98328.11;;;15.85;36.82
56176;BME280;63065;51.082;17.016;2023-03-14T10:23:35;98325.34;;;15.81;36.64
56176;BME280;63065;51.082;17.016;2023-03-14T10:26:06;98324.08;;;16.23;36.71
56176;BME280;63065;51.082;17.016;2023-03-14T10:28:27;98320.81;;;16.53;36.15
56176;BME280;63065;51.082;17.016;2023-03-14T10:30:50;98317.29;;;16.74;35.94
56176;BME280;63065;51.082;17.016;2023-03-14T10:33:21;98319.62;;;16.51;35.60
56176;BME280;63065;51.082;17.016;2023-03-14T10:35:41;98323.89;;;16.49;36.07
56176;BME280;63065;51.082;17.016;2023-03-14T10:38:14;98317.53;;;16.27;35.94
56176;BME280;63065;51.082;17.016;2023-03-14T10:40:34;98311.62;;;16.86;36.34
56176;BME280;63065;51.082;17.016;2023-03-14T10:42:58;98309.49;;;17.02;36.32
56176;BME280;63065;51.082;17.016;2023-03-14T10:45:31;98311.21;;;16.40;36.48
56176;BME280;63065;51.082;17.016;2023-03-14T10:47:50;98309.23;;;16.94;36.22
56176;BME280;63065;51.082;17.016;2023-03-14T10:50:22;98304.37;;;16.65;36.28
56176;BME280;63065;51.082;17.016;2023-03-14T10:52:47;98306.46;;;16.87;36.10
56176;BME280;63065;51.082;17.016;2023-03-14T10:55:10;98305.18;;;16.87;36.09
56176;BME280;63065;51.082;17.016;2023-03-14T10:57:30;98307.56;;;17.06;35.93
56176;BME280;63065;51.082;17.016;2023-03-14T10:59:56;98307.94;;;17.29;35.77
56176;BME280;63065;51.082;17.016;2023-03-14T11:02:32;98310.50;;;17.34;35.41
56176;BME280;63065;51.082;17.016;2023-03-14T11:04:57;98310.07;;;17.59;34.80
56176;BME280;63065;51.082;17.016;2023-03-14T11:07:19;98304.22;;;17.57;35.62
56176;BME280;63065;51.082;17.016;2023-03-14T11:09:42;98298.15;;;17.78;34.94
56176;BME280;63065;51.082;17.016;2023-03-14T11:12:13;98297.48;;;18.02;35.41
56176;BME280;63065;51.082;17.016;2023-03-14T11:14:36;98290.19;;;17.91;35.25
56176;BME280;63065;51.082;17.016;2023-03-14T11:17:00;98289.11;;;18.05;35.24
56176;BME280;63065;51.082;17.016;2023-03-14T11:21:51;98275.66;;;17.75;35.11
56176;BME280;63065;51.082;17.016;2023-03-14T11:26:42;98269.94;;;17.47;35.10
56176;BME280;63065;51.082;17.016;2023-03-14T11:29:10;98271.71;;;17.73;34.91
56176;BME280;63065;51.082;17.016;2023-03-14T11:31:30;98266.29;;;17.81;35.01
56176;BME280;63065;51.082;17.016;2023-03-14T11:33:58;98255.71;;;18.15;35.01
56176;BME280;63065;51.082;17.016;2023-03-14T11:36:23;98259.39;;;17.96;34.90
56176;BME280;63065;51.082;17.016;2023-03-14T11:38:48;98257.53;;;17.75;35.26
56176;BME280;63065;51.082;17.016;2023-03-14T11:41:16;98258.34;;;17.59;35.66
56176;BME280;63065;51.082;17.016;2023-03-14T11:43:39;98268.95;;;17.79;35.20
56176;BME280;63065;51.082;17.016;2023-03-14T11:46:05;98268.00;;;17.69;35.09
56176;BME280;63065;51.082;17.016;2023-03-14T11:48:35;98262.22;;;17.95;35.67
56176;BME280;63065;51.082;17.016;2023-03-14T11:50:55;98261.75;;;17.36;34.69
56176;BME280;63065;51.082;17.016;2023-03-14T11:53:23;98266.62;;;17.85;34.47
56176;BME280;63065;51.082;17.016;2023-03-14T11:55:45;98265.17;;;17.96;35.25
56176;BME280;63065;51.082;17.016;2023-03-14T11:58:14;98262.63;;;17.51;34.93
56176;BME280;63065;51.082;17.016;2023-03-14T12:00:36;98256.99;;;17.71;34.47
56176;BME280;63065;51.082;17.016;2023-03-14T12:03:05;98260.21;;;17.70;34.87
56176;BME280;63065;51.082;17.016;2023-03-14T12:05:37;98256.17;;;17.79;34.77
56176;BME280;63065;51.082;17.016;2023-03-14T12:10:18;98254.00;;;17.80;34.62
56176;BME280;63065;51.082;17.016;2023-03-14T12:12:44;98256.36;;;17.93;35.12
56176;BME280;63065;51.082;17.016;2023-03-14T12:15:18;98257.35;;;17.40;35.60
56176;BME280;63065;51.082;17.016;2023-03-14T12:17:37;98254.52;;;18.13;35.60
56176;BME280;63065;51.082;17.016;2023-03-14T12:20:04;98251.57;;;17.65;35.87
56176;BME280;63065;51.082;17.016;2023-03-14T12:22:27;98246.72;;;17.70;36.12
56176;BME280;63065;51.082;17.016;2023-03-14T12:24:56;98248.66;;;17.63;35.99
56176;BME280;63065;51.082;17.016;2023-03-14T12:34:34;98246.52;;;17.99;35.79
56176;BME280;63065;51.082;17.016;2023-03-14T12:37:09;98241.03;;;17.26;36.57
56176;BME280;63065;51.082;17.016;2023-03-14T12:39:36;98240.56;;;18.05;36.11
56176;BME280;63065;51.082;17.016;2023-03-14T12:41:53;98235.08;;;17.55;36.59
56176;BME280;63065;51.082;17.016;2023-03-14T12:46:44;98234.42;;;17.58;36.14
56176;BME280;63065;51.082;17.016;2023-03-14T12:49:08;98234.27;;;17.47;36.55
56176;BME280;63065;51.082;17.016;2023-03-14T12:51:36;98237.36;;;17.59;36.37
56176;BME280;63065;51.082;17.016;2023-03-14T12:54:07;98234.16;;;17.28;36.32
56176;BME280;63065;51.082;17.016;2023-03-14T12:56:34;98230.09;;;16.87;36.60
56176;BME280;63065;51.082;17.016;2023-03-14T12:58:58;98230.10;;;17.33;36.44
56176;BME280;63065;51.082;17.016;2023-03-14T13:01:17;98225.44;;;17.56;36.49
56176;BME280;63065;51.082;17.016;2023-03-14T13:03:45;98223.38;;;17.28;36.51